Time;durP1;ratioP1;P1;durP2;ratioP2;P2;SDS_P1;SDS_P2;PMS_P1;PMS_P2;Temp;Humidity;BMP_temperature;BMP_pressure;BME280_temperature;BME280_humidity;BME280_pressure;Samples;Min_cycle;Max_cycle;Signal;HPM_P1;HPM_P2
2023/01/09 00:02:07;;;;;;;4.45;1.80;;;;;;;;;;6105936;19;20531;-72
2023/01/09 00:04:13;;;;;;;4.68;2.00;;;;;;;;;;6105778;19;20428;-73
2023/01/09 00:06:18;;;;;;;5.30;2.00;;;;;;;;;;6107750;19;20019;-73
2023/01/09 00:08:23;;;;;;;5.20;2.05;;;;;;;;;;6105112;19;20412;-74
2023/01/09 00:10:28;;;;;;;6.90;2.28;;;;;;;;;;6107566;19;20027;-73
2023/01/09 00:12:36;;;;;;;8.18;1.90;;;;;;;;;;6109069;19;20011;-71
2023/01/09 00:14:43;;;;;;;8.93;2.08;;;;;;;;;;6105755;19;20006;-72
2023/01/09 00:16:51;;;;;;;9.40;2.47;;;;;;;;;;6108206;19;20009;-72
2023/01/09 00:18:59;;;;;;;4.22;2.10;;;;;;;;;;6107636;19;20015;-73
2023/01/09 00:21:05;;;;;;;3.35;1.83;;;;;;;;;;6103860;19;20042;-73
2023/01/09 00:23:15;;;;;;;4.93;2.08;;;;;;;;;;6106655;19;20011;-73
2023/01/09 00:25:21;;;;;;;4.95;1.98;;;;;;;;;;6104514;19;20011;-73
2023/01/09 00:27:26;;;;;;;7.53;2.35;;;;;;;;;;6108912;19;20046;-73
2023/01/09 00:29:31;;;;;;;6.22;2.13;;;;;;;;;;6102389;19;20013;-73
2023/01/09 00:31:40;;;;;;;6.65;2.25;;;;;;;;;;6102976;19;20014;-72
2023/01/09 00:33:49;;;;;;;6.90;2.20;;;;;;;;;;6104012;19;20114;-71
2023/01/09 00:35:57;;;;;;;2.85;1.85;;;;;;;;;;6105460;19;20034;-71
2023/01/09 00:38:03;;;;;;;6.78;1.98;;;;;;;;;;6103604;19;20127;-73
2023/01/09 00:40:09;;;;;;;3.53;2.03;;;;;;;;;;6106179;19;20448;-72
2023/01/09 00:42:17;;;;;;;5.78;2.03;;;;;;;;;;6104253;19;20045;-74
2023/01/09 00:44:26;;;;;;;6.85;2.08;;;;;;;;;;6103101;19;20595;-73
2023/01/09 00:46:35;;;;;;;11.07;2.40;;;;;;;;;;6107069;19;20016;-73
2023/01/09 00:48:44;;;;;;;5.60;2.15;;;;;;;;;;6104728;19;20388;-73
2023/01/09 00:50:49;;;;;;;6.63;2.00;;;;;;;;;;6102341;19;20051;-73
2023/01/09 00:53:01;;;;;;;6.45;2.20;;;;;;;;;;6102766;19;20652;-73
2023/01/09 00:55:09;;;;;;;2.60;2.08;;;;;;;;;;6103382;19;20011;-73
2023/01/09 00:57:15;;;;;;;5.25;2.33;;;;;;;;;;6104711;19;20344;-73
2023/01/09 00:59:20;;;;;;;4.35;2.00;;;;;;;;;;6105608;19;20088;-71
2023/01/09 01:01:25;;;;;;;5.70;2.40;;;;;;;;;;6078249;19;20552;-71
2023/01/09 01:03:34;;;;;;;10.20;2.72;;;;;;;;;;6097191;19;20006;-70
2023/01/09 01:07:59;;;;;;;6.20;2.90;;;;;;;;;;6100366;19;20010;-71
2023/01/09 01:10:05;;;;;;;9.70;2.67;;;;;;;;;;6102936;19;20010;-72
2023/01/09 01:12:14;;;;;;;6.30;2.83;;;;;;;;;;6106072;19;20369;-72
2023/01/09 01:14:19;;;;;;;7.32;3.08;;;;;;;;;;6105357;19;20007;-72
2023/01/09 01:16:23;;;;;;;5.90;2.67;;;;;;;;;;6107264;19;20475;-72
2023/01/09 01:18:28;;;;;;;8.93;3.08;;;;;;;;;;6106306;19;20010;-73
2023/01/09 01:20:34;;;;;;;5.93;2.60;;;;;;;;;;6103375;19;20042;-73
2023/01/09 01:22:41;;;;;;;7.82;2.60;;;;;;;;;;6106548;19;20369;-73
2023/01/09 01:24:48;;;;;;;6.65;2.97;;;;;;;;;;6103880;19;20078;-74
2023/01/09 01:26:53;;;;;;;6.18;3.03;;;;;;;;;;6103855;19;20027;-73
2023/01/09 01:29:00;;;;;;;6.82;2.88;;;;;;;;;;6104677;19;20025;-72
2023/01/09 01:31:06;;;;;;;4.97;2.53;;;;;;;;;;6100882;19;20011;-71
2023/01/09 01:33:15;;;;;;;5.07;2.15;;;;;;;;;;6102057;19;20032;-72
2023/01/09 01:35:23;;;;;;;8.75;2.60;;;;;;;;;;6099861;19;20029;-72
2023/01/09 01:37:28;;;;;;;7.07;2.65;;;;;;;;;;6102376;19;20506;-71
2023/01/09 01:39:33;;;;;;;7.65;2.75;;;;;;;;;;6098208;19;20007;-71
2023/01/09 01:41:41;;;;;;;7.38;2.80;;;;;;;;;;6073944;19;20014;-71
2023/01/09 01:43:54;;;;;;;5.75;2.85;;;;;;;;;;6098220;19;20021;-73
2023/01/09 01:45:59;;;;;;;7.85;2.90;;;;;;;;;;6101030;19;20493;-72
2023/01/09 01:48:07;;;;;;;6.10;2.65;;;;;;;;;;6101471;19;20522;-71
2023/01/09 01:50:17;;;;;;;4.53;2.58;;;;;;;;;;6099841;19;20017;-72
2023/01/09 01:52:22;;;;;;;7.00;2.85;;;;;;;;;;6098568;19;20018;-72
2023/01/09 01:54:33;;;;;;;7.10;2.92;;;;;;;;;;6094591;19;20569;-71
2023/01/09 01:56:44;;;;;;;6.50;3.00;;;;;;;;;;6078062;19;20022;-73
2023/01/09 01:58:54;;;;;;;5.63;2.70;;;;;;;;;;6099386;19;20593;-73
2023/01/09 02:01:02;;;;;;;8.35;2.72;;;;;;;;;;6102496;19;20279;-73
2023/01/09 02:03:10;;;;;;;7.30;2.95;;;;;;;;;;6099318;19;20010;-73
2023/01/09 02:05:15;;;;;;;7.30;3.28;;;;;;;;;;6101638;19;20063;-74
2023/01/09 02:07:19;;;;;;;11.05;3.85;;;;;;;;;;6104637;19;20399;-72
2023/01/09 02:09:25;;;;;;;7.03;3.30;;;;;;;;;;6103469;19;20018;-73
2023/01/09 02:11:33;;;;;;;7.28;3.42;;;;;;;;;;6102756;19;20010;-73
2023/01/09 02:13:41;;;;;;;7.47;3.30;;;;;;;;;;6098544;19;20014;-73
2023/01/09 02:16:04;;;;;;;10.93;3.25;;;;;;;;;;6104354;19;20022;-71
2023/01/09 02:18:32;;;;;;;10.80;3.53;;;;;;;;;;6101715;19;20046;-71
2023/01/09 02:20:44;;;;;;;11.13;3.60;;;;;;;;;;6101032;19;20471;-71
2023/01/09 02:22:59;;;;;;;8.40;3.47;;;;;;;;;;6101249;19;20491;-72
2023/01/09 02:25:32;;;;;;;7.15;2.95;;;;;;;;;;6101941;19;20018;-72
2023/01/09 02:28:08;;;;;;;9.55;3.67;;;;;;;;;;6098305;19;20010;-72
2023/01/09 02:30:38;;;;;;;6.28;3.08;;;;;;;;;;6102331;19;20470;-73
2023/01/09 02:32:49;;;;;;;7.15;3.63;;;;;;;;;;6101675;19;20007;-72
2023/01/09 02:35:00;;;;;;;8.32;3.75;;;;;;;;;;6102245;19;20007;-71
2023/01/09 02:37:09;;;;;;;7.53;3.15;;;;;;;;;;6081309;19;20510;-72
2023/01/09 02:39:23;;;;;;;10.93;4.05;;;;;;;;;;6097775;19;20015;-72
2023/01/09 02:41:35;;;;;;;13.18;3.83;;;;;;;;;;6099645;19;20537;-72
2023/01/09 02:43:45;;;;;;;17.40;4.40;;;;;;;;;;6095485;19;20018;-73
2023/01/09 02:45:52;;;;;;;9.23;3.40;;;;;;;;;;6094498;19;20019;-74
2023/01/09 02:47:57;;;;;;;9.40;3.75;;;;;;;;;;6099876;19;20011;-73
2023/01/09 02:50:07;;;;;;;10.93;3.88;;;;;;;;;;6100516;19;20023;-73
2023/01/09 02:52:23;;;;;;;9.32;4.32;;;;;;;;;;6095860;19;20463;-73
2023/01/09 02:54:40;;;;;;;7.18;3.60;;;;;;;;;;6098264;19;20439;-73
2023/01/09 02:57:06;;;;;;;9.43;3.92;;;;;;;;;;6096995;19;20018;-72
2023/01/09 02:59:22;;;;;;;11.75;4.55;;;;;;;;;;6100551;19;20017;-73
2023/01/09 03:01:37;;;;;;;12.07;4.03;;;;;;;;;;6099756;19;20010;-73
2023/01/09 03:03:48;;;;;;;5.55;3.00;;;;;;;;;;6094113;19;20046;-73
2023/01/09 03:05:56;;;;;;;8.27;3.63;;;;;;;;;;6098192;19;20573;-73
2023/01/09 03:08:03;;;;;;;7.85;2.97;;;;;;;;;;6097836;19;20014;-72
2023/01/09 03:10:14;;;;;;;8.15;4.10;;;;;;;;;;6099867;19;20423;-72
2023/01/09 03:12:22;;;;;;;10.00;3.40;;;;;;;;;;6097297;19;20014;-73
2023/01/09 03:14:28;;;;;;;7.93;2.97;;;;;;;;;;6098939;19;20074;-72
2023/01/09 03:16:39;;;;;;;8.07;2.92;;;;;;;;;;6100193;19;20317;-72
2023/01/09 03:18:44;;;;;;;5.82;2.97;;;;;;;;;;6095456;19;20011;-72
2023/01/09 03:20:50;;;;;;;5.65;3.03;;;;;;;;;;6091514;19;20011;-72
2023/01/09 03:22:59;;;;;;;9.40;3.80;;;;;;;;;;5949499;19;2987411;-73
2023/01/09 03:25:04;;;;;;;11.77;3.05;;;;;;;;;;6100445;19;20026;-73
2023/01/09 03:27:09;;;;;;;6.18;2.55;;;;;;;;;;6097693;19;20339;-72
2023/01/09 03:29:14;;;;;;;8.63;3.78;;;;;;;;;;6098972;19;20350;-72
2023/01/09 03:31:20;;;;;;;6.55;2.67;;;;;;;;;;6098859;19;20011;-73
2023/01/09 03:33:28;;;;;;;8.38;3.08;;;;;;;;;;6101144;19;20681;-72
2023/01/09 03:35:33;;;;;;;7.03;2.80;;;;;;;;;;6101910;19;20033;-70
2023/01/09 03:37:38;;;;;;;5.15;2.50;;;;;;;;;;6096679;19;20018;-71
2023/01/09 03:39:48;;;;;;;8.15;3.38;;;;;;;;;;6100358;19;20333;-73
2023/01/09 03:41:53;;;;;;;6.82;2.67;;;;;;;;;;6101419;19;20047;-72
2023/01/09 03:43:57;;;;;;;5.50;2.30;;;;;;;;;;6102603;19;20568;-71
2023/01/09 03:46:05;;;;;;;4.07;2.35;;;;;;;;;;6098212;19;20463;-71
2023/01/09 03:48:10;;;;;;;7.40;3.17;;;;;;;;;;6099540;19;20068;-71
2023/01/09 03:50:18;;;;;;;6.75;2.47;;;;;;;;;;6100184;19;20082;-71
2023/01/09 03:52:23;;;;;;;7.03;2.35;;;;;;;;;;6096424;19;20019;-71
2023/01/09 03:54:30;;;;;;;8.05;2.90;;;;;;;;;;6098747;19;20178;-71
2023/01/09 03:56:34;;;;;;;6.47;2.83;;;;;;;;;;6098557;19;20015;-70
2023/01/09 03:58:39;;;;;;;10.05;3.03;;;;;;;;;;6105775;19;20346;-71
2023/01/09 04:00:47;;;;;;;7.65;2.97;;;;;;;;;;6103997;19;20020;-70
2023/01/09 04:02:52;;;;;;;9.32;3.28;;;;;;;;;;6101616;19;20459;-71
2023/01/09 04:04:57;;;;;;;5.88;2.35;;;;;;;;;;6104476;19;20165;-71
2023/01/09 04:07:05;;;;;;;9.32;3.30;;;;;;;;;;6105685;19;20018;-70
2023/01/09 04:09:10;;;;;;;6.22;2.45;;;;;;;;;;6108205;19;20380;-71
2023/01/09 04:11:16;;;;;;;9.95;3.40;;;;;;;;;;6107802;19;20322;-73
2023/01/09 04:13:21;;;;;;;8.40;3.22;;;;;;;;;;6103379;19;20010;-73
2023/01/09 04:15:26;;;;;;;13.45;4.20;;;;;;;;;;6105261;19;20010;-73
2023/01/09 04:17:31;;;;;;;7.05;2.95;;;;;;;;;;6106849;19;20018;-72
2023/01/09 04:19:36;;;;;;;5.93;2.70;;;;;;;;;;6101245;19;20011;-72
2023/01/09 04:21:44;;;;;;;6.38;3.08;;;;;;;;;;6104026;19;20006;-73
2023/01/09 04:23:52;;;;;;;11.63;3.17;;;;;;;;;;6106201;19;20033;-72
2023/01/09 04:25:57;;;;;;;5.70;2.60;;;;;;;;;;6105820;19;20011;-72
2023/01/09 04:28:03;;;;;;;6.63;2.55;;;;;;;;;;6103674;19;20018;-73
2023/01/09 04:30:11;;;;;;;10.07;2.70;;;;;;;;;;6105695;19;20075;-71
2023/01/09 04:32:17;;;;;;;8.77;3.00;;;;;;;;;;6104358;19;20017;-71
2023/01/09 04:34:24;;;;;;;6.28;2.63;;;;;;;;;;6106444;19;20317;-72
2023/01/09 04:36:29;;;;;;;7.03;2.78;;;;;;;;;;6108472;19;20380;-72
2023/01/09 04:38:36;;;;;;;9.93;2.75;;;;;;;;;;6109888;19;20045;-71
2023/01/09 04:40:43;;;;;;;8.82;2.78;;;;;;;;;;6107913;19;20070;-72
2023/01/09 04:42:48;;;;;;;5.65;2.70;;;;;;;;;;6105786;19;20018;-71
2023/01/09 04:44:53;;;;;;;4.97;2.85;;;;;;;;;;6104889;19;20003;-71
2023/01/09 04:47:00;;;;;;;4.97;2.65;;;;;;;;;;6104867;19;20089;-72
2023/01/09 04:49:05;;;;;;;6.80;2.90;;;;;;;;;;6104440;19;20018;-71
2023/01/09 04:51:10;;;;;;;6.55;3.00;;;;;;;;;;6105425;19;20014;-70
2023/01/09 04:53:17;;;;;;;6.47;2.70;;;;;;;;;;6099876;19;20014;-70
2023/01/09 04:55:22;;;;;;;6.57;2.75;;;;;;;;;;6105252;19;20002;-69
2023/01/09 04:57:32;;;;;;;13.00;2.92;;;;;;;;;;6104238;19;20484;-70
2023/01/09 04:59:38;;;;;;;8.00;2.83;;;;;;;;;;6101118;19;20034;-70
2023/01/09 05:01:45;;;;;;;8.43;3.20;;;;;;;;;;6100845;19;20069;-71
2023/01/09 05:03:50;;;;;;;9.27;3.13;;;;;;;;;;6101364;19;20010;-70
2023/01/09 05:05:55;;;;;;;8.30;3.40;;;;;;;;;;6105288;19;20014;-71
2023/01/09 05:08:01;;;;;;;8.52;4.15;;;;;;;;;;6105378;19;20024;-70
2023/01/09 05:10:08;;;;;;;9.52;3.20;;;;;;;;;;6104496;19;20014;-70
2023/01/09 05:12:13;;;;;;;6.70;3.28;;;;;;;;;;6104609;19;20010;-71
2023/01/09 05:14:21;;;;;;;7.63;3.38;;;;;;;;;;6106016;19;20491;-74
2023/01/09 05:16:25;;;;;;;9.18;3.72;;;;;;;;;;6107534;19;20380;-73
2023/01/09 05:18:33;;;;;;;7.28;3.42;;;;;;;;;;6088255;19;20011;-73
2023/01/09 05:20:39;;;;;;;10.95;3.42;;;;;;;;;;6103862;19;20015;-73
2023/01/09 05:22:44;;;;;;;8.48;3.92;;;;;;;;;;6107029;19;20054;-74
2023/01/09 05:24:49;;;;;;;10.52;4.03;;;;;;;;;;6104514;19;20006;-74
2023/01/09 05:26:54;;;;;;;9.40;3.88;;;;;;;;;;6104238;19;20034;-72
2023/01/09 05:28:59;;;;;;;10.13;4.07;;;;;;;;;;6105771;19;20058;-72
2023/01/09 05:31:08;;;;;;;16.90;4.30;;;;;;;;;;6104955;19;20348;-70
2023/01/09 05:33:15;;;;;;;8.85;4.20;;;;;;;;;;6104391;19;20022;-70
2023/01/09 05:35:20;;;;;;;11.05;4.15;;;;;;;;;;6083590;19;20003;-69
2023/01/09 05:37:25;;;;;;;11.48;4.47;;;;;;;;;;6103625;19;20028;-70
2023/01/09 05:39:33;;;;;;;14.15;4.60;;;;;;;;;;6102274;19;20010;-70
2023/01/09 05:41:39;;;;;;;7.35;3.78;;;;;;;;;;6100247;19;20208;-70
2023/01/09 05:43:44;;;;;;;10.68;3.78;;;;;;;;;;6099056;19;20083;-70
2023/01/09 05:45:49;;;;;;;9.75;3.50;;;;;;;;;;6102156;19;20031;-69
2023/01/09 05:47:57;;;;;;;14.05;4.18;;;;;;;;;;6100538;19;20026;-69
2023/01/09 05:50:06;;;;;;;5.97;3.40;;;;;;;;;;6100455;19;20366;-73
2023/01/09 05:52:10;;;;;;;10.02;3.85;;;;;;;;;;6101764;19;20025;-69
2023/01/09 05:54:15;;;;;;;12.10;3.95;;;;;;;;;;6101717;19;20018;-70
2023/01/09 05:56:20;;;;;;;9.65;3.60;;;;;;;;;;6101036;19;20027;-70
2023/01/09 05:58:25;;;;;;;7.72;3.83;;;;;;;;;;6097780;19;20006;-70
2023/01/09 06:00:33;;;;;;;14.40;4.18;;;;;;;;;;6102544;19;20018;-70
2023/01/09 06:02:39;;;;;;;7.00;3.95;;;;;;;;;;6101564;19;20066;-71
2023/01/09 06:04:47;;;;;;;7.88;3.35;;;;;;;;;;6104413;19;20050;-70
2023/01/09 06:06:52;;;;;;;8.32;3.30;;;;;;;;;;6102823;19;20022;-70
2023/01/09 06:08:56;;;;;;;8.52;3.47;;;;;;;;;;6106103;19;20493;-70
2023/01/09 06:11:01;;;;;;;7.03;3.33;;;;;;;;;;6103697;19;20458;-69
2023/01/09 06:13:06;;;;;;;11.75;3.58;;;;;;;;;;6103088;19;20074;-70
2023/01/09 06:15:15;;;;;;;8.95;3.50;;;;;;;;;;6105678;19;20038;-70
2023/01/09 06:17:20;;;;;;;13.48;3.83;;;;;;;;;;6101927;19;20015;-70
2023/01/09 06:19:25;;;;;;;10.43;4.00;;;;;;;;;;6102603;19;20013;-70
2023/01/09 06:21:34;;;;;;;11.23;4.10;;;;;;;;;;6097102;19;20301;-70
2023/01/09 06:23:39;;;;;;;11.65;4.15;;;;;;;;;;6093881;19;20654;-69
2023/01/09 06:25:44;;;;;;;6.85;3.55;;;;;;;;;;6103368;19;20045;-71
2023/01/09 06:27:50;;;;;;;13.18;3.88;;;;;;;;;;6099885;19;20035;-72
2023/01/09 06:29:55;;;;;;;8.07;3.47;;;;;;;;;;6102785;19;20023;-72
2023/01/09 06:32:02;;;;;;;9.18;4.10;;;;;;;;;;6097118;19;20424;-71
2023/01/09 06:34:07;;;;;;;6.85;3.35;;;;;;;;;;6099291;19;20629;-70
2023/01/09 06:36:14;;;;;;;6.78;4.07;;;;;;;;;;6099520;19;20023;-71
2023/01/09 06:38:22;;;;;;;7.43;3.88;;;;;;;;;;6101951;19;20046;-71
2023/01/09 06:40:26;;;;;;;8.00;3.63;;;;;;;;;;6102938;19;20014;-70
2023/01/09 06:42:34;;;;;;;14.70;4.38;;;;;;;;;;6100337;19;20038;-70
2023/01/09 06:44:39;;;;;;;9.23;3.90;;;;;;;;;;6098336;19;20021;-69
2023/01/09 06:46:44;;;;;;;9.52;3.25;;;;;;;;;;6098918;19;20010;-69
2023/01/09 06:48:49;;;;;;;11.18;3.67;;;;;;;;;;6098595;19;20034;-69
2023/01/09 06:50:53;;;;;;;9.55;3.55;;;;;;;;;;6096990;19;20018;-70
2023/01/09 06:53:01;;;;;;;11.15;3.70;;;;;;;;;;6099176;19;20021;-69
2023/01/09 06:55:10;;;;;;;8.35;3.20;;;;;;;;;;6096847;19;20007;-69
2023/01/09 06:57:16;;;;;;;6.10;2.30;;;;;;;;;;6100988;19;20019;-69
2023/01/09 06:59:21;;;;;;;7.40;2.85;;;;;;;;;;6098846;19;20029;-69
2023/01/09 07:01:25;;;;;;;6.85;2.47;;;;;;;;;;6099710;19;20355;-69
2023/01/09 07:03:35;;;;;;;7.30;2.05;;;;;;;;;;6097472;19;20013;-69
2023/01/09 07:05:43;;;;;;;2.88;1.73;;;;;;;;;;6097241;19;20114;-69
2023/01/09 07:07:48;;;;;;;6.70;1.73;;;;;;;;;;6100839;19;20020;-69
2023/01/09 07:09:53;;;;;;;8.70;2.20;;;;;;;;;;6098804;19;20010;-70
2023/01/09 07:12:02;;;;;;;8.38;2.03;;;;;;;;;;6100796;19;20019;-70
2023/01/09 07:14:07;;;;;;;4.28;1.50;;;;;;;;;;6099622;19;20010;-69
2023/01/09 07:16:12;;;;;;;3.30;1.55;;;;;;;;;;6099383;19;20348;-70
2023/01/09 07:18:18;;;;;;;6.25;2.00;;;;;;;;;;6100250;19;20082;-69
2023/01/09 07:20:23;;;;;;;5.63;1.90;;;;;;;;;;6100051;19;20783;-69
2023/01/09 07:22:27;;;;;;;6.82;1.90;;;;;;;;;;6101478;19;20516;-69
2023/01/09 07:24:32;;;;;;;6.00;2.13;;;;;;;;;;6100387;19;20026;-69
2023/01/09 07:26:43;;;;;;;5.63;1.63;;;;;;;;;;6102072;19;20047;-70
2023/01/09 07:28:50;;;;;;;5.80;1.75;;;;;;;;;;6100768;19;20558;-70
2023/01/09 07:30:55;;;;;;;3.42;1.50;;;;;;;;;;6100341;19;20471;-70
2023/01/09 07:33:03;;;;;;;4.00;2.00;;;;;;;;;;6107170;19;20124;-70
2023/01/09 07:35:09;;;;;;;1.90;1.50;;;;;;;;;;6103114;19;20011;-70
2023/01/09 07:37:18;;;;;;;3.50;1.35;;;;;;;;;;6110429;19;20021;-69
2023/01/09 07:39:23;;;;;;;5.40;1.80;;;;;;;;;;6105658;19;20046;-69
2023/01/09 07:41:28;;;;;;;4.35;1.23;;;;;;;;;;6108316;19;20364;-70
2023/01/09 07:43:33;;;;;;;6.72;2.30;;;;;;;;;;6109871;19;20036;-70
2023/01/09 07:45:40;;;;;;;5.25;1.48;;;;;;;;;;6105247;19;20018;-69
2023/01/09 07:47:45;;;;;;;5.15;1.40;;;;;;;;;;6107973;19;20014;-69
2023/01/09 07:49:49;;;;;;;5.03;2.05;;;;;;;;;;6108189;19;20369;-69
2023/01/09 07:51:54;;;;;;;5.68;1.67;;;;;;;;;;6108515;19;20351;-69
2023/01/09 07:53:59;;;;;;;3.05;1.40;;;;;;;;;;6106238;19;20011;-69
2023/01/09 07:56:04;;;;;;;1.92;1.60;;;;;;;;;;6109128;19;20010;-70
2023/01/09 07:58:08;;;;;;;5.88;1.40;;;;;;;;;;6108147;19;20463;-70
2023/01/09 08:00:14;;;;;;;3.75;1.70;;;;;;;;;;6109316;19;20014;-70
2023/01/09 08:02:22;;;;;;;6.15;1.70;;;;;;;;;;6107574;19;20023;-69
2023/01/09 08:04:29;;;;;;;2.63;1.20;;;;;;;;;;6107739;19;20036;-69
2023/01/09 08:06:34;;;;;;;7.15;3.83;;;;;;;;;;6109339;19;20025;-69
2023/01/09 08:08:40;;;;;;;3.53;1.70;;;;;;;;;;6105630;19;20017;-70
2023/01/09 08:10:45;;;;;;;6.38;1.88;;;;;;;;;;6107689;19;20028;-71
2023/01/09 08:12:50;;;;;;;7.82;2.60;;;;;;;;;;6107262;19;20013;-70
2023/01/09 08:14:59;;;;;;;10.00;2.10;;;;;;;;;;6107260;19;20010;-70
2023/01/09 08:17:04;;;;;;;10.60;2.10;;;;;;;;;;6107590;19;20040;-70
2023/01/09 08:19:12;;;;;;;5.47;2.13;;;;;;;;;;6107835;19;20011;-69
2023/01/09 08:21:17;;;;;;;13.10;2.72;;;;;;;;;;6104688;19;20550;-69
2023/01/09 08:23:22;;;;;;;7.25;2.20;;;;;;;;;;6108584;19;20010;-69
2023/01/09 08:25:26;;;;;;;8.45;2.42;;;;;;;;;;6106543;19;20085;-69
2023/01/09 08:27:35;;;;;;;10.20;2.80;;;;;;;;;;6106750;19;20023;-68
2023/01/09 08:29:40;;;;;;;14.57;2.40;;;;;;;;;;6107900;19;20018;-70
2023/01/09 08:31:45;;;;;;;13.23;2.65;;;;;;;;;;6110038;19;20030;-70
2023/01/09 08:33:50;;;;;;;9.13;2.58;;;;;;;;;;6106401;19;20015;-70
2023/01/09 08:35:57;;;;;;;16.88;3.45;;;;;;;;;;6109283;19;20026;-70
2023/01/09 08:38:02;;;;;;;9.15;3.05;;;;;;;;;;6106314;19;20383;-70
2023/01/09 08:40:09;;;;;;;7.90;2.42;;;;;;;;;;6108561;19;20066;-70
2023/01/09 08:49:08;;;;;;;12.38;2.50;;;;;;;;;;6104718;19;20027;-69
2023/01/09 08:51:16;;;;;;;13.32;3.38;;;;;;;;;;6105674;19;20010;-69
2023/01/09 08:53:20;;;;;;;9.50;2.85;;;;;;;;;;6104735;19;20352;-69
2023/01/09 08:55:25;;;;;;;8.32;3.05;;;;;;;;;;6106242;19;20410;-70
2023/01/09 08:57:33;;;;;;;10.52;2.22;;;;;;;;;;6106828;19;20014;-70
2023/01/09 08:59:38;;;;;;;9.15;2.42;;;;;;;;;;6103562;19;20015;-70
2023/01/09 09:01:43;;;;;;;10.13;2.80;;;;;;;;;;6106258;19;20268;-70
2023/01/09 09:03:48;;;;;;;9.80;2.67;;;;;;;;;;6107432;19;20006;-68
2023/01/09 09:05:52;;;;;;;10.55;2.95;;;;;;;;;;6108947;19;20127;-68
2023/01/09 09:08:01;;;;;;;11.35;2.55;;;;;;;;;;6106410;19;20495;-69
2023/01/09 09:10:07;;;;;;;11.57;3.55;;;;;;;;;;6107086;19;20073;-69
2023/01/09 09:12:13;;;;;;;23.10;2.92;;;;;;;;;;6105684;19;20518;-69
2023/01/09 09:16:34;;;;;;;8.23;2.25;;;;;;;;;;6105556;19;20439;-69
2023/01/09 09:18:39;;;;;;;10.23;2.55;;;;;;;;;;6105694;19;20006;-69
2023/01/09 09:20:44;;;;;;;12.93;3.03;;;;;;;;;;6102293;19;20261;-68
2023/01/09 09:22:49;;;;;;;8.00;1.90;;;;;;;;;;6105541;19;20011;-70
2023/01/09 09:24:56;;;;;;;9.18;3.10;;;;;;;;;;6106929;19;20018;-69
2023/01/09 09:27:02;;;;;;;7.55;2.50;;;;;;;;;;6105804;19;20287;-69
2023/01/09 09:29:06;;;;;;;5.78;2.10;;;;;;;;;;6105497;19;20035;-69
2023/01/09 09:31:14;;;;;;;5.13;2.08;;;;;;;;;;6106916;19;20018;-70
2023/01/09 09:33:19;;;;;;;7.72;2.08;;;;;;;;;;6105710;19;20007;-69
2023/01/09 09:35:24;;;;;;;7.20;1.85;;;;;;;;;;6105859;19;20492;-70
2023/01/09 09:37:29;;;;;;;10.45;2.50;;;;;;;;;;6105597;19;20007;-70
2023/01/09 09:39:34;;;;;;;9.15;2.30;;;;;;;;;;6104657;19;20633;-69
2023/01/09 09:47:02;;;;;;;10.57;2.20;;;;;;;;;;6105962;19;20014;-70
2023/01/09 09:49:10;;;;;;;13.82;2.78;;;;;;;;;;6106261;19;20014;-72
2023/01/09 09:51:26;;;;;;;8.15;2.40;;;;;;;;;;6105104;19;20030;-70
2023/01/09 09:53:34;;;;;;;9.65;3.35;;;;;;;;;;6099929;19;20675;-69
2023/01/09 09:55:44;;;;;;;15.68;4.00;;;;;;;;;;6101867;19;20033;-70
2023/01/09 09:57:52;;;;;;;5.80;2.78;;;;;;;;;;6105534;19;20015;-70
2023/01/09 09:59:58;;;;;;;6.30;2.25;;;;;;;;;;6106365;19;20061;-70
2023/01/09 10:02:07;;;;;;;13.05;2.97;;;;;;;;;;6105925;19;20018;-70
2023/01/09 10:04:15;;;;;;;7.20;2.38;;;;;;;;;;6106477;19;20018;-70
2023/01/09 10:06:25;;;;;;;11.45;2.60;;;;;;;;;;6104548;19;20509;-70
2023/01/09 10:08:39;;;;;;;9.45;2.85;;;;;;;;;;6105519;19;20030;-69
2023/01/09 10:10:47;;;;;;;12.18;2.72;;;;;;;;;;6104493;19;20003;-70
2023/01/09 10:12:56;;;;;;;6.72;2.63;;;;;;;;;;6105225;19;20053;-69
2023/01/09 10:15:02;;;;;;;10.60;3.45;;;;;;;;;;6104740;19;20582;-69
2023/01/09 10:17:17;;;;;;;8.90;2.55;;;;;;;;;;6105055;19;20159;-70
2023/01/09 10:19:36;;;;;;;7.65;2.42;;;;;;;;;;6104232;19;20015;-69
2023/01/09 10:21:47;;;;;;;7.32;2.28;;;;;;;;;;6103189;19;20034;-69
2023/01/09 10:24:19;;;;;;;7.35;2.20;;;;;;;;;;6103676;19;20031;-70
2023/01/09 10:26:33;;;;;;;9.60;2.58;;;;;;;;;;6103987;19;20031;-70
2023/01/09 10:29:10;;;;;;;7.10;3.05;;;;;;;;;;6105309;19;20035;-69
2023/01/09 10:31:26;;;;;;;9.32;2.30;;;;;;;;;;6107145;19;20486;-72
2023/01/09 10:33:44;;;;;;;12.15;3.17;;;;;;;;;;6101592;19;20023;-70
2023/01/09 10:36:13;;;;;;;7.93;2.45;;;;;;;;;;6098979;19;20018;-69
2023/01/09 10:38:21;;;;;;;11.52;2.20;;;;;;;;;;6100417;19;20010;-70
2023/01/09 10:40:29;;;;;;;7.90;2.38;;;;;;;;;;6103342;19;20050;-69
2023/01/09 10:42:37;;;;;;;13.10;2.80;;;;;;;;;;6104137;19;20014;-69
2023/01/09 10:44:52;;;;;;;8.93;2.50;;;;;;;;;;6106021;19;20022;-69
2023/01/09 10:46:58;;;;;;;7.85;2.70;;;;;;;;;;6106727;19;20086;-70
2023/01/09 10:49:05;;;;;;;6.85;2.50;;;;;;;;;;6104264;19;20061;-69
2023/01/09 10:51:18;;;;;;;11.55;3.13;;;;;;;;;;6103725;19;20046;-69
2023/01/09 10:53:25;;;;;;;15.30;2.60;;;;;;;;;;6099986;19;20115;-69
2023/01/09 10:55:38;;;;;;;7.43;2.42;;;;;;;;;;6105670;19;20038;-69
2023/01/09 10:57:45;;;;;;;7.68;2.63;;;;;;;;;;6098531;19;20010;-69
2023/01/09 10:59:52;;;;;;;7.50;2.88;;;;;;;;;;6101637;19;20015;-69
2023/01/09 11:01:57;;;;;;;13.27;3.30;;;;;;;;;;6103683;19;20007;-68
2023/01/09 11:04:03;;;;;;;10.80;2.75;;;;;;;;;;6105995;19;20248;-69
2023/01/09 11:06:18;;;;;;;11.43;3.30;;;;;;;;;;6106365;19;20042;-69
2023/01/09 11:08:26;;;;;;;12.63;3.33;;;;;;;;;;6111862;19;20343;-69
2023/01/09 11:10:47;;;;;;;7.93;2.90;;;;;;;;;;6108977;19;20002;-69
2023/01/09 11:12:52;;;;;;;11.50;2.72;;;;;;;;;;6107505;19;20375;-69
2023/01/09 11:15:27;;;;;;;11.85;3.75;;;;;;;;;;6108237;19;20014;-72
2023/01/09 11:17:32;;;;;;;14.38;3.55;;;;;;;;;;6109894;19;20018;-69
2023/01/09 11:19:37;;;;;;;10.65;3.47;;;;;;;;;;6107364;19;20015;-69
2023/01/09 11:21:43;;;;;;;8.40;2.30;;;;;;;;;;6108815;19;20031;-69
2023/01/09 11:23:51;;;;;;;14.65;3.38;;;;;;;;;;6110415;19;20395;-70
2023/01/09 11:25:57;;;;;;;13.35;2.88;;;;;;;;;;6111186;19;20017;-70
2023/01/09 11:28:10;;;;;;;6.45;2.55;;;;;;;;;;6109571;19;20359;-70
2023/01/09 11:30:26;;;;;;;11.15;2.90;;;;;;;;;;6111158;19;20015;-71
2023/01/09 11:32:31;;;;;;;10.35;2.67;;;;;;;;;;6108563;19;20010;-70
2023/01/09 11:34:40;;;;;;;9.20;2.83;;;;;;;;;;6109812;19;20070;-70
2023/01/09 11:36:48;;;;;;;15.40;3.63;;;;;;;;;;6109175;19;20013;-70
2023/01/09 11:38:55;;;;;;;11.20;3.13;;;;;;;;;;6109271;19;20038;-71
2023/01/09 11:41:01;;;;;;;14.38;2.95;;;;;;;;;;6107217;19;20050;-70
2023/01/09 11:43:13;;;;;;;9.85;2.67;;;;;;;;;;6108670;19;20039;-70
2023/01/09 11:45:22;;;;;;;11.10;2.95;;;;;;;;;;6109641;19;20036;-71
2023/01/09 11:47:39;;;;;;;8.98;2.58;;;;;;;;;;6108775;19;20007;-70
2023/01/09 11:49:45;;;;;;;8.50;2.60;;;;;;;;;;6105359;19;20018;-70
2023/01/09 11:52:08;;;;;;;10.32;3.10;;;;;;;;;;6109237;19;20014;-72
2023/01/09 11:54:22;;;;;;;9.07;3.15;;;;;;;;;;6108279;19;20369;-71
2023/01/09 11:56:27;;;;;;;13.82;3.03;;;;;;;;;;6105604;19;20011;-71
2023/01/09 11:58:34;;;;;;;12.15;3.13;;;;;;;;;;6106549;19;20007;-70
2023/01/09 12:00:48;;;;;;;11.10;2.88;;;;;;;;;;6108772;19;20006;-68
2023/01/09 12:03:04;;;;;;;16.60;3.20;;;;;;;;;;6109185;19;20298;-70
2023/01/09 12:05:19;;;;;;;9.23;2.55;;;;;;;;;;6109081;19;20015;-72
2023/01/09 12:07:49;;;;;;;9.90;2.63;;;;;;;;;;6108938;19;20018;-72
2023/01/09 12:10:02;;;;;;;12.85;2.58;;;;;;;;;;6104998;19;22451;-72
2023/01/09 12:12:14;;;;;;;8.77;2.40;;;;;;;;;;6107841;19;20070;-72
2023/01/09 12:14:39;;;;;;;24.70;3.05;;;;;;;;;;6106672;19;20010;-72
2023/01/09 12:16:54;;;;;;;15.20;4.32;;;;;;;;;;6107667;19;20651;-72
2023/01/09 12:19:10;;;;;;;14.27;3.10;;;;;;;;;;6107580;19;20011;-73
2023/01/09 12:21:24;;;;;;;10.32;2.55;;;;;;;;;;6102999;19;20296;-73
2023/01/09 12:23:40;;;;;;;10.70;2.90;;;;;;;;;;6109840;19;20010;-73
2023/01/09 12:25:50;;;;;;;10.18;2.72;;;;;;;;;;6103346;19;20019;-73
2023/01/09 12:28:08;;;;;;;6.35;2.50;;;;;;;;;;6105638;19;20010;-72
2023/01/09 12:30:41;;;;;;;10.38;2.75;;;;;;;;;;6107545;19;20011;-73
2023/01/09 12:32:56;;;;;;;5.45;2.28;;;;;;;;;;6107849;19;20006;-73
2023/01/09 12:35:12;;;;;;;7.28;2.30;;;;;;;;;;6105791;19;20003;-74
2023/01/09 12:37:33;;;;;;;8.18;2.17;;;;;;;;;;6106081;19;20013;-73
2023/01/09 12:39:46;;;;;;;8.60;2.63;;;;;;;;;;6081288;19;20267;-72
2023/01/09 12:42:04;;;;;;;9.13;2.50;;;;;;;;;;6107662;19;20035;-73
2023/01/09 12:44:44;;;;;;;9.07;3.08;;;;;;;;;;6107079;19;20078;-74
2023/01/09 12:46:56;;;;;;;7.20;2.20;;;;;;;;;;6107522;19;20519;-73
2023/01/09 12:49:19;;;;;;;19.23;3.42;;;;;;;;;;6106514;19;20027;-73
2023/01/09 12:51:32;;;;;;;11.38;3.10;;;;;;;;;;6105908;19;20368;-74
2023/01/09 12:53:40;;;;;;;16.35;3.10;;;;;;;;;;6102853;19;20017;-73
2023/01/09 12:55:49;;;;;;;6.45;2.22;;;;;;;;;;6108304;19;20049;-71
2023/01/09 12:57:56;;;;;;;11.95;3.70;;;;;;;;;;6108101;19;24389;-71
2023/01/09 13:00:06;;;;;;;10.25;2.60;;;;;;;;;;6108610;19;20016;-71
2023/01/09 13:02:20;;;;;;;8.25;3.00;;;;;;;;;;6105870;19;20003;-72
2023/01/09 13:04:33;;;;;;;8.75;3.58;;;;;;;;;;6108511;19;20027;-72